PMO weather

San Luis Airport
Palermo, Huila Department, Colombia

Public forecast

Using degrees Celsius for public forecast. Weather courtesy of forecast.io.

Closest aviation weather report (METAR) to San Luis Airport

Closest report is Benito Salas Airport, 7.7 nm (14.2 km) E. Retrieved 2019/10/16 15:00 UTC (34 minutes ago):

SKNV 161500Z VRB02KT 9999 FEW027 BKN130 27/20 A3002

Closest aviation forecast (TAF) to San Luis Airport

Closest forecast is Alfonso Bonilla Aragon International Airport, 68.4 nm (126.7 km) WNW. Retrieved 2019/10/16 12:46 UTC (3 hours ago):

TAF SKCL 161030Z 1612/1712 VRB04KT 9999 FEW030 BKN120 BECMG 1616/1618 32010KT TEMPO 1620/1622 5000 TSRA SCT017CB TX30/1619Z TN19/1711Z